Time;durP1;ratioP1;P1;durP2;ratioP2;P2;SDS_P1;SDS_P2;PMS_P1;PMS_P2;Temp;Humidity;BMP_temperature;BMP_pressure;BME280_temperature;BME280_humidity;BME280_pressure;Samples;Min_cycle;Max_cycle;Signal;HPM_P1;HPM_P2
2022/04/15 00:00:28;;;;;;;21.05;10.18;;;7.30;99.90;;;;;;4952994;28;20560;-59
2022/04/15 00:02:53;;;;;;;18.23;10.40;;;7.30;99.90;;;;;;4952763;28;20031;-60
2022/04/15 00:05:36;;;;;;;19.25;10.50;;;7.30;99.90;;;;;;4953837;29;20078;-59
2022/04/15 00:08:06;;;;;;;17.40;9.98;;;7.30;99.90;;;;;;4951924;28;20054;-60
2022/04/15 00:10:32;;;;;;;20.50;10.40;;;7.30;99.90;;;;;;4953495;28;20161;-58
2022/04/15 00:12:59;;;;;;;20.00;10.50;;;7.30;99.90;;;;;;4952846;28;20039;-59
2022/04/15 00:15:24;;;;;;;16.75;10.82;;;7.20;99.90;;;;;;4955580;28;20041;-59
2022/04/15 00:17:51;;;;;;;22.05;10.68;;;7.20;99.90;;;;;;4954184;28;20043;-60
2022/04/15 00:20:16;;;;;;;21.67;11.50;;;7.20;99.90;;;;;;4953623;28;20043;-58
2022/04/15 00:22:42;;;;;;;24.17;11.45;;;7.10;99.90;;;;;;4953470;29;20066;-59
2022/04/15 00:25:10;;;;;;;21.70;11.45;;;7.10;99.90;;;;;;4950746;28;20046;-59
2022/04/15 00:27:37;;;;;;;21.55;11.15;;;7.10;99.90;;;;;;4952824;28;20043;-59
2022/04/15 00:30:04;;;;;;;17.65;9.55;;;7.10;99.90;;;;;;4953195;29;20094;-60
2022/04/15 00:32:30;;;;;;;13.57;8.48;;;7.00;99.90;;;;;;4953285;29;20039;-59
2022/04/15 00:34:55;;;;;;;16.00;8.40;;;6.90;99.90;;;;;;4951335;28;20053;-59
2022/04/15 00:37:21;;;;;;;25.65;8.98;;;6.70;99.90;;;;;;4953080;28;20126;-60
2022/04/15 00:39:47;;;;;;;14.60;9.63;;;6.60;99.90;;;;;;4936074;29;20409;-59
2022/04/15 00:42:13;;;;;;;128.82;10.35;;;6.60;99.90;;;;;;4939062;28;20098;-59
2022/04/15 00:44:38;;;;;;;35.42;7.70;;;6.40;99.90;;;;;;4952349;28;20082;-59
2022/04/15 00:47:18;;;;;;;42.63;7.57;;;6.30;99.90;;;;;;4953522;29;20044;-59
2022/04/15 00:49:44;;;;;;;49.97;9.30;;;6.20;99.90;;;;;;4950422;28;20040;-59
2022/04/15 00:52:13;;;;;;;20.08;10.25;;;6.10;99.90;;;;;;4953055;28;20039;-59
2022/04/15 00:54:41;;;;;;;18.15;8.32;;;6.10;99.90;;;;;;4952641;28;20039;-59
2022/04/15 00:57:09;;;;;;;34.65;7.80;;;6.10;99.90;;;;;;4951187;28;20110;-60
2022/04/15 00:59:38;;;;;;;18.52;8.43;;;6.00;99.90;;;;;;4952787;28;20042;-60
2022/04/15 01:02:04;;;;;;;23.45;7.43;;;6.00;99.90;;;;;;4960270;28;20043;-59
2022/04/15 01:04:31;;;;;;;17.83;8.00;;;6.00;99.90;;;;;;4952804;29;20577;-59
2022/04/15 01:07:00;;;;;;;34.97;9.02;;;6.00;99.90;;;;;;4950204;28;20046;-59
2022/04/15 01:09:30;;;;;;;109.47;12.27;;;5.90;99.90;;;;;;4956186;28;20046;-59
2022/04/15 01:11:56;;;;;;;140.88;12.10;;;5.80;99.90;;;;;;4956770;28;20047;-59
2022/04/15 01:14:24;;;;;;;212.55;14.90;;;5.70;99.90;;;;;;4959652;28;20034;-60
2022/04/15 01:16:49;;;;;;;483.45;16.85;;;5.60;99.90;;;;;;4959235;28;20133;-59
2022/04/15 01:19:15;;;;;;;434.38;17.65;;;5.40;99.90;;;;;;4956340;28;20126;-60
2022/04/15 01:21:41;;;;;;;169.85;10.57;;;5.30;99.90;;;;;;4956355;28;20078;-60
2022/04/15 01:24:07;;;;;;;74.90;11.70;;;5.40;99.90;;;;;;4955048;28;20071;-59
2022/04/15 01:26:32;;;;;;;23.33;11.02;;;5.40;99.90;;;;;;4956246;28;20119;-59
2022/04/15 01:28:58;;;;;;;229.63;11.50;;;5.50;99.90;;;;;;4956634;29;20490;-59
2022/04/15 01:31:29;;;;;;;226.68;12.20;;;5.50;99.90;;;;;;4940948;28;20039;-59
2022/04/15 01:33:54;;;;;;;229.85;11.60;;;5.40;99.90;;;;;;4955460;28;20040;-60
2022/04/15 01:36:20;;;;;;;329.55;16.50;;;5.40;99.90;;;;;;4956196;28;20141;-60
2022/04/15 01:38:46;;;;;;;151.25;11.65;;;5.40;99.90;;;;;;4953534;28;20081;-60
2022/04/15 01:41:11;;;;;;;34.15;10.40;;;5.40;99.90;;;;;;4955463;28;20109;-59
2022/04/15 01:43:37;;;;;;;21.58;10.52;;;5.40;99.90;;;;;;4955548;28;20051;-60
2022/04/15 01:46:02;;;;;;;22.05;11.52;;;5.50;99.90;;;;;;4956232;29;20062;-60
2022/04/15 01:48:28;;;;;;;25.20;11.25;;;5.60;99.90;;;;;;4958439;28;20043;-59
2022/04/15 01:50:53;;;;;;;19.48;11.15;;;5.80;99.90;;;;;;4962660;28;20088;-59
2022/04/15 01:53:22;;;;;;;22.25;10.55;;;5.80;99.90;;;;;;4955325;28;20062;-59
2022/04/15 01:55:48;;;;;;;19.77;11.05;;;5.90;99.90;;;;;;4955957;29;20043;-60
2022/04/15 01:58:13;;;;;;;22.98;11.25;;;6.00;99.90;;;;;;4953759;28;20058;-60
2022/04/15 02:00:39;;;;;;;22.70;11.20;;;6.10;99.90;;;;;;4955252;28;20047;-60
2022/04/15 02:03:05;;;;;;;20.83;10.60;;;6.20;99.90;;;;;;4955524;29;20044;-59
2022/04/15 02:05:30;;;;;;;21.48;11.80;;;6.30;99.90;;;;;;4952567;28;20046;-59
2022/04/15 02:07:56;;;;;;;22.13;11.38;;;6.40;99.90;;;;;;4955033;28;20055;-60
2022/04/15 02:10:21;;;;;;;19.92;10.77;;;6.40;99.90;;;;;;4955935;29;20086;-60
2022/04/15 02:12:47;;;;;;;21.95;11.88;;;6.50;99.90;;;;;;4960260;28;20035;-58
2022/04/15 02:15:12;;;;;;;21.42;11.63;;;6.60;99.90;;;;;;4962990;28;20066;-59
2022/04/15 02:17:38;;;;;;;21.27;11.32;;;6.60;99.90;;;;;;4955269;28;20050;-60
2022/04/15 02:20:04;;;;;;;23.13;11.00;;;6.70;99.90;;;;;;4952531;28;20042;-59
2022/04/15 02:22:30;;;;;;;19.05;11.43;;;6.70;99.90;;;;;;4960853;28;20047;-60
2022/04/15 02:24:56;;;;;;;19.38;11.05;;;6.70;99.90;;;;;;4955151;28;20039;-59
2022/04/15 02:27:21;;;;;;;20.30;10.93;;;6.80;99.90;;;;;;4955574;29;20047;-59
2022/04/15 02:29:47;;;;;;;24.40;11.80;;;6.80;99.90;;;;;;4959968;28;20062;-60
2022/04/15 02:32:12;;;;;;;23.50;12.43;;;6.80;99.90;;;;;;4954795;28;20118;-60
2022/04/15 02:34:38;;;;;;;19.40;11.73;;;6.90;99.90;;;;;;4954681;28;20043;-59
2022/04/15 02:37:04;;;;;;;18.73;11.23;;;6.90;99.90;;;;;;4953038;28;20039;-59
2022/04/15 02:39:29;;;;;;;20.42;11.57;;;7.00;99.90;;;;;;4954923;28;20042;-60
2022/04/15 02:41:56;;;;;;;22.65;12.48;;;7.00;99.90;;;;;;4954514;28;20050;-59
2022/04/15 02:44:22;;;;;;;19.58;11.48;;;7.10;99.90;;;;;;4954837;29;20035;-59
2022/04/15 02:46:48;;;;;;;23.05;11.30;;;7.10;99.90;;;;;;4952783;28;20640;-60
2022/04/15 02:49:14;;;;;;;17.65;10.77;;;7.10;99.90;;;;;;4954706;28;20035;-59
2022/04/15 02:51:40;;;;;;;19.25;11.07;;;7.20;99.90;;;;;;4963598;28;20573;-59
2022/04/15 02:54:05;;;;;;;18.17;11.00;;;7.20;99.90;;;;;;4964753;28;20110;-59
2022/04/15 02:56:31;;;;;;;21.75;10.80;;;7.20;99.90;;;;;;4954320;28;20044;-59
2022/04/15 02:58:56;;;;;;;24.33;11.40;;;7.20;99.90;;;;;;4954485;28;20047;-60
2022/04/15 03:01:22;;;;;;;20.23;11.20;;;7.20;99.90;;;;;;4954959;29;20082;-59
2022/04/15 03:03:48;;;;;;;20.98;11.18;;;7.30;99.90;;;;;;4939043;28;20055;-60
2022/04/15 03:06:13;;;;;;;20.80;11.15;;;7.30;99.90;;;;;;4954066;28;20094;-60
2022/04/15 03:08:39;;;;;;;22.75;10.98;;;7.30;99.90;;;;;;4954644;28;20458;-59
2022/04/15 03:11:06;;;;;;;17.38;11.13;;;7.30;99.90;;;;;;4952122;28;20405;-60
2022/04/15 03:13:31;;;;;;;18.90;10.90;;;7.30;99.90;;;;;;4936546;29;20118;-59
2022/04/15 03:15:57;;;;;;;23.35;11.30;;;7.40;99.90;;;;;;4954213;28;20119;-60
2022/04/15 03:18:22;;;;;;;19.98;11.63;;;7.40;99.90;;;;;;4952501;28;20073;-60
2022/04/15 03:20:48;;;;;;;20.30;10.52;;;7.40;99.90;;;;;;4962935;28;20118;-59
2022/04/15 03:23:14;;;;;;;18.92;10.43;;;7.40;99.90;;;;;;4953869;28;20047;-60
2022/04/15 03:25:39;;;;;;;18.92;10.15;;;7.40;99.90;;;;;;4954636;29;20474;-60
2022/04/15 03:28:05;;;;;;;19.45;10.68;;;7.40;99.90;;;;;;4963944;28;20050;-62
2022/04/15 03:30:30;;;;;;;17.45;10.50;;;7.40;99.90;;;;;;4959874;28;20035;-62
2022/04/15 03:32:56;;;;;;;19.38;10.00;;;7.40;99.90;;;;;;4953092;28;20061;-61
2022/04/15 03:35:22;;;;;;;19.02;11.02;;;7.40;99.90;;;;;;4953577;28;20066;-60
2022/04/15 03:37:51;;;;;;;19.58;10.63;;;7.40;99.90;;;;;;4935977;28;20035;-62
2022/04/15 03:40:17;;;;;;;19.30;11.00;;;7.40;99.90;;;;;;4952841;28;20509;-63
2022/04/15 03:42:59;;;;;;;21.73;11.23;;;7.40;99.90;;;;;;4953522;28;20078;-62
2022/04/15 03:45:25;;;;;;;16.65;9.85;;;7.50;99.90;;;;;;4948530;28;20520;-61
2022/04/15 03:47:54;;;;;;;21.15;11.05;;;7.50;99.90;;;;;;4952827;28;20099;-62
2022/04/15 03:50:19;;;;;;;23.17;11.77;;;7.50;99.90;;;;;;4952795;28;20036;-61
2022/04/15 03:52:47;;;;;;;22.00;10.75;;;7.50;99.90;;;;;;4970165;28;20041;-62
2022/04/15 03:55:14;;;;;;;21.98;10.75;;;7.50;99.90;;;;;;4968204;28;20082;-61
2022/04/15 03:57:40;;;;;;;20.92;10.88;;;7.50;99.90;;;;;;4955699;28;20086;-62
2022/04/15 04:00:10;;;;;;;18.65;10.32;;;7.50;99.90;;;;;;4951531;28;20556;-62
2022/04/15 04:02:36;;;;;;;16.08;9.70;;;7.50;99.90;;;;;;4952568;28;20095;-61
2022/04/15 04:05:04;;;;;;;19.42;10.60;;;7.60;99.90;;;;;;4935119;29;20071;-61
2022/04/15 04:07:30;;;;;;;21.15;10.63;;;7.50;99.90;;;;;;4952702;29;20058;-62
2022/04/15 04:09:55;;;;;;;17.30;10.77;;;7.60;99.90;;;;;;4950943;28;20035;-62
2022/04/15 04:12:21;;;;;;;15.15;9.38;;;7.60;99.90;;;;;;4953176;28;20417;-62
2022/04/15 04:14:46;;;;;;;15.20;9.88;;;7.60;99.90;;;;;;4952694;28;20143;-62
2022/04/15 04:17:12;;;;;;;19.02;10.55;;;7.60;99.90;;;;;;4950634;28;20715;-62
2022/04/15 04:19:37;;;;;;;17.15;10.32;;;7.60;99.90;;;;;;4963270;28;20078;-62
2022/04/15 04:22:04;;;;;;;18.05;10.02;;;7.60;99.90;;;;;;4952659;28;20039;-62
2022/04/15 04:24:30;;;;;;;23.15;10.82;;;7.60;99.90;;;;;;4952082;29;20079;-62
2022/04/15 04:26:55;;;;;;;22.10;10.73;;;7.60;99.90;;;;;;4951322;28;20079;-62
2022/04/15 04:29:21;;;;;;;18.08;10.35;;;7.60;99.90;;;;;;4968700;28;20382;-61
2022/04/15 04:31:46;;;;;;;18.90;10.23;;;7.60;99.90;;;;;;4982063;28;20066;-62
2022/04/15 04:34:12;;;;;;;15.85;10.57;;;7.60;99.90;;;;;;4972585;28;20177;-62
2022/04/15 04:36:37;;;;;;;16.58;10.48;;;7.60;99.90;;;;;;4974241;28;20520;-60
2022/04/15 04:39:08;;;;;;;20.27;10.35;;;7.70;99.90;;;;;;4971603;28;20042;-60
2022/04/15 04:41:33;;;;;;;21.42;9.82;;;7.60;99.90;;;;;;4954286;28;20122;-63
2022/04/15 04:43:59;;;;;;;22.25;11.15;;;7.70;99.90;;;;;;4967950;28;20117;-61
2022/04/15 04:46:24;;;;;;;17.27;10.18;;;7.70;99.90;;;;;;4958942;28;20470;-61
2022/04/15 04:48:50;;;;;;;19.55;10.63;;;7.70;99.90;;;;;;4976684;28;20034;-62
2022/04/15 04:51:15;;;;;;;19.00;10.50;;;7.70;99.90;;;;;;4966941;28;20446;-60
2022/04/15 04:53:41;;;;;;;19.45;10.77;;;7.70;99.90;;;;;;4960431;28;20051;-62
2022/04/15 04:56:07;;;;;;;20.95;10.80;;;7.70;99.90;;;;;;4956711;28;20043;-61
2022/04/15 04:58:32;;;;;;;19.63;10.63;;;7.70;99.90;;;;;;4952600;28;21328;-61
2022/04/15 05:00:58;;;;;;;18.30;9.73;;;7.70;99.90;;;;;;4969082;28;20043;-61
2022/04/15 05:03:23;;;;;;;17.80;10.25;;;7.70;99.90;;;;;;4963054;28;20042;-61
2022/04/15 05:05:49;;;;;;;21.40;9.93;;;7.80;99.90;;;;;;4969689;28;20093;-62
2022/04/15 05:08:14;;;;;;;17.23;10.27;;;7.80;99.90;;;;;;4968505;28;20030;-59
2022/04/15 05:10:40;;;;;;;14.45;8.18;;;7.80;99.90;;;;;;4971728;28;20035;-60
2022/04/15 05:13:05;;;;;;;15.95;8.55;;;7.80;99.90;;;;;;4972940;28;20031;-60
2022/04/15 05:15:31;;;;;;;17.00;8.70;;;7.80;99.90;;;;;;4971484;28;20620;-60
2022/04/15 05:17:56;;;;;;;15.43;9.00;;;7.80;99.90;;;;;;4965708;28;20041;-60
2022/04/15 05:20:22;;;;;;;16.83;9.15;;;7.80;99.90;;;;;;4972347;28;20126;-60
2022/04/15 05:22:47;;;;;;;17.25;9.05;;;7.80;99.90;;;;;;4975248;28;20045;-59
2022/04/15 05:25:13;;;;;;;14.85;8.75;;;7.80;99.90;;;;;;4968528;28;20041;-59
2022/04/15 05:27:39;;;;;;;15.70;9.38;;;7.80;99.90;;;;;;4973324;28;20029;-60
2022/04/15 05:30:05;;;;;;;17.90;9.45;;;7.80;99.90;;;;;;4974177;28;20723;-60
2022/04/15 05:32:31;;;;;;;15.45;9.68;;;7.90;99.90;;;;;;4975265;28;20046;-60
2022/04/15 05:34:56;;;;;;;12.73;6.15;;;7.90;99.90;;;;;;4971369;28;20034;-59
2022/04/15 05:37:22;;;;;;;17.45;9.63;;;7.90;99.90;;;;;;4972656;28;20045;-60
2022/04/15 05:39:47;;;;;;;16.25;9.63;;;7.90;99.90;;;;;;4973434;28;20042;-60
2022/04/15 05:42:13;;;;;;;14.73;10.07;;;7.90;99.90;;;;;;4966236;28;20078;-60
2022/04/15 05:44:41;;;;;;;20.70;9.88;;;8.00;99.90;;;;;;4970579;28;20043;-60
2022/04/15 05:47:08;;;;;;;21.27;9.32;;;8.00;99.90;;;;;;4974413;28;20066;-60
2022/04/15 05:49:34;;;;;;;14.45;7.82;;;8.00;99.90;;;;;;4965984;28;20073;-60
2022/04/15 05:52:01;;;;;;;9.95;4.50;;;8.00;99.90;;;;;;4969762;28;20409;-60
2022/04/15 05:54:27;;;;;;;11.20;7.32;;;8.00;99.90;;;;;;4973235;28;20401;-60
2022/04/15 05:56:52;;;;;;;14.18;8.00;;;8.00;99.90;;;;;;4972090;28;20494;-59
2022/04/15 05:59:20;;;;;;;12.52;6.38;;;8.00;99.90;;;;;;4948585;28;20043;-59
2022/04/15 06:01:47;;;;;;;11.73;7.05;;;8.00;99.90;;;;;;4965385;28;20387;-60
2022/04/15 06:04:13;;;;;;;11.35;6.72;;;8.00;99.90;;;;;;4969653;28;20046;-60
2022/04/15 06:06:39;;;;;;;13.23;7.97;;;8.00;99.90;;;;;;4973567;28;20039;-60
2022/04/15 06:09:04;;;;;;;11.90;7.20;;;8.00;99.90;;;;;;4961569;28;20031;-60
2022/04/15 06:11:30;;;;;;;11.32;7.60;;;8.00;99.90;;;;;;4968344;28;20042;-60
2022/04/15 06:13:56;;;;;;;10.18;6.10;;;8.10;99.90;;;;;;4967032;28;20053;-60
2022/04/15 06:16:22;;;;;;;12.70;7.75;;;8.10;99.90;;;;;;4968549;28;20046;-60
2022/04/15 06:18:48;;;;;;;12.40;7.47;;;8.10;99.90;;;;;;4978970;28;20042;-60
2022/04/15 06:21:13;;;;;;;10.60;7.20;;;8.20;99.90;;;;;;4982842;28;20128;-60
2022/04/15 06:23:39;;;;;;;8.48;4.82;;;8.20;99.90;;;;;;4967255;28;20038;-59
2022/04/15 06:26:06;;;;;;;7.72;4.60;;;8.20;99.90;;;;;;4969614;28;20580;-60
2022/04/15 06:28:32;;;;;;;9.50;6.28;;;8.20;99.90;;;;;;4975426;28;20071;-60
2022/04/15 06:30:58;;;;;;;9.32;6.18;;;8.20;99.90;;;;;;4967750;28;20140;-57
2022/04/15 06:33:24;;;;;;;8.55;5.40;;;8.20;99.90;;;;;;4964573;28;20046;-61
2022/04/15 06:35:52;;;;;;;10.13;6.47;;;8.30;99.90;;;;;;4973895;28;20042;-63
2022/04/15 06:38:18;;;;;;;10.82;7.07;;;8.30;99.90;;;;;;4973456;28;20039;-58
2022/04/15 06:40:44;;;;;;;10.40;6.80;;;8.40;99.90;;;;;;4973395;28;20042;-61
2022/04/15 06:43:10;;;;;;;12.52;8.00;;;8.50;99.90;;;;;;4960160;28;20035;-61
2022/04/15 06:45:36;;;;;;;12.23;6.20;;;8.50;99.90;;;;;;4973893;28;20043;-61
2022/04/15 06:48:02;;;;;;;9.45;6.18;;;8.60;99.90;;;;;;4963168;28;20046;-61
2022/04/15 06:50:28;;;;;;;8.30;4.70;;;8.60;99.90;;;;;;4958079;28;20045;-59
2022/04/15 06:52:53;;;;;;;10.20;5.90;;;8.60;99.90;;;;;;4963710;28;20073;-61
2022/04/15 06:55:19;;;;;;;10.05;6.95;;;8.60;99.90;;;;;;4966090;28;20067;-60
2022/04/15 06:57:45;;;;;;;11.15;6.78;;;8.60;99.90;;;;;;4965541;28;20516;-65
2022/04/15 07:00:11;;;;;;;10.00;7.10;;;8.50;99.90;;;;;;4956353;28;20039;-60
2022/04/15 07:02:37;;;;;;;11.93;7.25;;;8.40;99.90;;;;;;4972955;28;20050;-60
2022/04/15 07:05:05;;;;;;;10.15;7.32;;;8.40;99.90;;;;;;4963021;28;20066;-62
2022/04/15 07:07:31;;;;;;;10.75;7.15;;;8.30;99.90;;;;;;4969293;28;20042;-61
2022/04/15 07:09:56;;;;;;;11.75;6.32;;;8.30;99.90;;;;;;4962085;28;20039;-60
2022/04/15 07:12:22;;;;;;;11.23;6.93;;;8.30;99.90;;;;;;4972652;28;20035;-57
2022/04/15 07:14:48;;;;;;;11.15;6.85;;;8.20;99.90;;;;;;4959992;28;20105;-57
2022/04/15 07:17:13;;;;;;;9.20;6.72;;;8.20;99.90;;;;;;4961010;28;20093;-61
2022/04/15 07:19:39;;;;;;;8.05;4.80;;;8.20;99.90;;;;;;4970883;28;20058;-61
2022/04/15 07:22:05;;;;;;;8.88;6.18;;;8.20;99.90;;;;;;4949413;28;20039;-61
2022/04/15 07:24:35;;;;;;;8.88;6.47;;;8.20;99.90;;;;;;4962162;28;20062;-61
2022/04/15 07:27:01;;;;;;;10.10;6.18;;;8.20;99.90;;;;;;4967458;28;20042;-58
2022/04/15 07:29:27;;;;;;;9.40;7.10;;;8.30;99.90;;;;;;4972714;28;20039;-62
2022/04/15 07:31:53;;;;;;;9.30;6.28;;;8.20;99.90;;;;;;4972697;28;20097;-60
2022/04/15 07:34:18;;;;;;;8.77;6.93;;;8.20;99.90;;;;;;4962162;28;20042;-59
2022/04/15 07:36:48;;;;;;;12.77;7.10;;;8.30;99.90;;;;;;4969655;28;20449;-60
2022/04/15 07:39:14;;;;;;;10.52;7.05;;;8.30;99.90;;;;;;4965518;28;20568;-59
2022/04/15 07:41:41;;;;;;;9.55;5.32;;;8.30;99.90;;;;;;4951579;28;20127;-60
2022/04/15 07:44:09;;;;;;;9.82;7.10;;;8.20;99.90;;;;;;4953280;28;20039;-60
2022/04/15 07:46:35;;;;;;;11.18;7.50;;;8.20;99.90;;;;;;4953477;28;20039;-60
2022/04/15 07:49:01;;;;;;;12.23;8.27;;;8.20;99.90;;;;;;4953061;29;20172;-60
2022/04/15 07:51:27;;;;;;;13.57;8.77;;;8.30;99.90;;;;;;4954363;28;20043;-60
2022/04/15 07:53:52;;;;;;;11.73;8.20;;;8.30;99.90;;;;;;4950348;28;20043;-60
2022/04/15 07:56:18;;;;;;;11.27;7.72;;;8.40;99.90;;;;;;4955048;28;20469;-61
2022/04/15 07:58:44;;;;;;;9.38;6.13;;;8.50;99.90;;;;;;4955781;28;20440;-60
2022/04/15 08:01:10;;;;;;;11.52;7.55;;;8.50;99.90;;;;;;4942295;28;20047;-60
2022/04/15 08:03:36;;;;;;;13.82;8.45;;;8.50;99.90;;;;;;4954286;28;20414;-58
2022/04/15 08:06:02;;;;;;;14.27;7.20;;;8.50;99.90;;;;;;4948598;28;20122;-57
2022/04/15 08:08:28;;;;;;;11.23;8.05;;;8.50;99.90;;;;;;4954501;28;20078;-57
2022/04/15 08:10:54;;;;;;;14.20;8.57;;;8.50;99.90;;;;;;4956454;28;20062;-57
2022/04/15 08:13:20;;;;;;;16.20;9.27;;;8.60;99.90;;;;;;4953030;28;20040;-57
2022/04/15 08:15:46;;;;;;;13.98;9.05;;;8.60;99.90;;;;;;4953186;28;20086;-58
2022/04/15 08:18:12;;;;;;;14.68;8.65;;;8.60;99.90;;;;;;4952935;28;20093;-57
2022/04/15 08:20:38;;;;;;;12.32;9.23;;;8.70;99.90;;;;;;4957673;28;20050;-60
2022/04/15 08:23:03;;;;;;;16.05;9.75;;;8.70;99.90;;;;;;4955985;28;20043;-61
2022/04/15 08:25:30;;;;;;;15.40;9.45;;;8.80;99.90;;;;;;4953054;28;20051;-59
2022/04/15 08:27:56;;;;;;;17.98;10.20;;;8.90;99.90;;;;;;4957637;28;20044;-60
2022/04/15 08:30:21;;;;;;;16.60;8.35;;;8.90;99.90;;;;;;4952855;28;20513;-61
2022/04/15 08:32:51;;;;;;;16.80;10.02;;;8.90;99.90;;;;;;4952451;28;20043;-60
2022/04/15 08:35:17;;;;;;;15.75;9.15;;;8.90;99.90;;;;;;4935546;29;20074;-60
2022/04/15 08:37:42;;;;;;;18.13;10.18;;;8.90;99.90;;;;;;4957212;28;20038;-60
2022/04/15 08:40:12;;;;;;;17.63;10.18;;;9.00;99.90;;;;;;4964989;28;20042;-60
2022/04/15 08:42:42;;;;;;;19.83;10.70;;;9.00;99.90;;;;;;4960748;28;20497;-60
2022/04/15 08:45:09;;;;;;;17.85;11.35;;;9.10;99.90;;;;;;4930605;28;20045;-61
2022/04/15 08:47:39;;;;;;;19.15;10.23;;;9.20;99.90;;;;;;4951282;28;20036;-60
2022/04/15 08:50:07;;;;;;;21.25;10.73;;;9.30;99.90;;;;;;4953916;28;20845;-60
2022/04/15 08:52:33;;;;;;;16.70;9.52;;;9.20;99.90;;;;;;4950350;28;20047;-60
2022/04/15 08:54:59;;;;;;;24.80;11.82;;;9.30;99.90;;;;;;4932909;28;20081;-61
2022/04/15 08:57:25;;;;;;;15.18;8.23;;;9.20;99.90;;;;;;4934875;29;20098;-60
2022/04/15 08:59:51;;;;;;;17.67;11.20;;;9.20;99.90;;;;;;4953075;29;20035;-60
2022/04/15 09:02:37;;;;;;;22.70;11.50;;;9.20;99.90;;;;;;4951293;28;20046;-57
2022/04/15 09:05:05;;;;;;;19.23;12.02;;;9.30;99.90;;;;;;4960096;28;20035;-58
2022/04/15 09:07:33;;;;;;;18.92;11.40;;;9.30;99.90;;;;;;4953062;29;20054;-58
2022/04/15 09:10:01;;;;;;;16.15;10.32;;;9.40;99.90;;;;;;4950860;28;20149;-59
2022/04/15 09:12:35;;;;;;;17.40;11.00;;;9.50;99.90;;;;;;4952590;28;20039;-59
2022/04/15 09:15:11;;;;;;;22.25;12.63;;;9.60;99.90;;;;;;4952497;28;20043;-59
2022/04/15 09:17:39;;;;;;;20.40;10.48;;;9.70;99.90;;;;;;4950330;28;20129;-59
2022/04/15 09:20:06;;;;;;;20.65;12.30;;;9.70;99.90;;;;;;4952301;28;20043;-57
2022/04/15 09:22:32;;;;;;;28.02;12.75;;;9.70;99.90;;;;;;4950013;28;20043;-57
2022/04/15 09:24:59;;;;;;;21.25;12.95;;;9.80;99.90;;;;;;4962391;23;20093;-60
2022/04/15 09:27:25;;;;;;;31.85;13.73;;;9.90;99.90;;;;;;4965359;28;20105;-58
2022/04/15 09:29:54;;;;;;;18.85;11.57;;;10.00;99.90;;;;;;4972159;28;20045;-58
2022/04/15 09:32:22;;;;;;;21.73;11.77;;;10.10;99.90;;;;;;4974004;28;20034;-57
2022/04/15 09:34:55;;;;;;;21.20;12.55;;;10.20;99.90;;;;;;4971399;28;20078;-58
2022/04/15 09:37:25;;;;;;;23.00;12.43;;;10.20;99.90;;;;;;4975297;28;20089;-57
2022/04/15 09:40:12;;;;;;;20.92;11.68;;;10.20;99.90;;;;;;4975113;28;20409;-58
2022/04/15 09:42:55;;;;;;;22.50;12.68;;;10.20;99.90;;;;;;4976859;28;20038;-57
2022/04/15 09:45:25;;;;;;;19.85;11.73;;;10.20;99.90;;;;;;4974811;28;20492;-57
2022/04/15 09:47:58;;;;;;;19.33;12.63;;;10.20;99.90;;;;;;4968544;28;20050;-57
2022/04/15 09:50:26;;;;;;;20.42;12.57;;;10.30;99.90;;;;;;4969606;28;20054;-59
2022/04/15 09:52:52;;;;;;;22.02;13.25;;;10.30;99.90;;;;;;4973351;28;20587;-58
2022/04/15 09:55:25;;;;;;;18.92;9.95;;;10.40;99.90;;;;;;4964015;28;20057;-59
2022/04/15 09:57:52;;;;;;;23.40;11.60;;;10.40;99.90;;;;;;4975174;28;20485;-59
2022/04/15 10:00:19;;;;;;;23.55;12.60;;;10.50;99.90;;;;;;4972786;28;20050;-57
2022/04/15 10:02:45;;;;;;;20.00;11.73;;;10.40;99.90;;;;;;4968000;28;20030;-59
2022/04/15 10:05:12;;;;;;;23.45;12.95;;;10.50;99.90;;;;;;4974373;28;20112;-57
2022/04/15 10:07:40;;;;;;;20.40;13.00;;;10.50;99.90;;;;;;4969833;28;20046;-59
2022/04/15 10:10:07;;;;;;;21.85;12.88;;;10.60;99.90;;;;;;4952095;28;20057;-58
2022/04/15 10:12:37;;;;;;;18.90;12.13;;;10.70;99.90;;;;;;4966133;28;20096;-59
2022/04/15 10:15:05;;;;;;;19.90;12.20;;;10.70;99.90;;;;;;4966850;28;20049;-58
2022/04/15 10:17:32;;;;;;;19.52;11.05;;;10.70;99.90;;;;;;4973523;28;20069;-59
2022/04/15 10:19:58;;;;;;;15.25;9.73;;;10.80;99.90;;;;;;4974219;28;20043;-58
2022/04/15 10:22:25;;;;;;;22.42;9.90;;;10.90;99.90;;;;;;4974455;28;20061;-59
2022/04/15 10:24:51;;;;;;;15.85;9.80;;;11.00;99.90;;;;;;4973651;28;20052;-56
2022/04/15 10:27:24;;;;;;;15.93;9.55;;;11.10;99.90;;;;;;4969892;28;20051;-59
2022/04/15 10:30:20;;;;;;;14.27;8.75;;;11.20;99.90;;;;;;4969372;28;20046;-57
2022/04/15 10:32:51;;;;;;;13.73;8.60;;;11.10;99.90;;;;;;4968371;28;20105;-57
2022/04/15 10:35:28;;;;;;;15.03;7.60;;;11.30;99.90;;;;;;4973163;28;20049;-59
2022/04/15 10:38:10;;;;;;;13.15;7.60;;;11.30;99.90;;;;;;4973394;28;20440;-59
2022/04/15 10:40:37;;;;;;;12.80;6.65;;;11.30;99.90;;;;;;4973415;28;20038;-60
2022/04/15 10:43:18;;;;;;;11.73;7.45;;;11.30;99.90;;;;;;4973532;28;20045;-57
2022/04/15 10:45:43;;;;;;;12.73;7.70;;;11.40;99.90;;;;;;4973238;28;20075;-58
2022/04/15 10:48:09;;;;;;;15.70;8.45;;;11.50;99.90;;;;;;4974168;28;20128;-56
2022/04/15 10:50:35;;;;;;;12.43;8.05;;;11.60;99.90;;;;;;4969902;28;20046;-59
2022/04/15 10:53:34;;;;;;;15.48;7.82;;;11.60;99.90;;;;;;4965518;28;20039;-56
2022/04/15 10:56:08;;;;;;;15.43;8.23;;;11.80;99.90;;;;;;4931773;28;20074;-57
2022/04/15 11:02:02;;;;;;;13.02;8.55;;;12.00;99.90;;;;;;4970482;28;20051;-56
2022/04/15 11:04:35;;;;;;;12.80;7.72;;;12.20;99.90;;;;;;4970403;28;20493;-58
2022/04/15 11:07:24;;;;;;;10.77;7.65;;;12.30;99.90;;;;;;4972748;28;20540;-57
2022/04/15 11:09:50;;;;;;;14.90;8.15;;;12.30;99.90;;;;;;4980037;28;20045;-57
2022/04/15 11:12:29;;;;;;;16.85;8.38;;;12.30;99.90;;;;;;4964522;28;20050;-58
2022/04/15 11:14:55;;;;;;;14.68;8.00;;;12.30;99.90;;;;;;4969403;28;20043;-56
2022/04/15 11:17:37;;;;;;;11.25;7.20;;;12.30;99.90;;;;;;4973257;28;20096;-59
2022/04/15 11:20:04;;;;;;;12.68;7.80;;;12.10;99.90;;;;;;4953878;29;20474;-56
2022/04/15 11:22:31;;;;;;;13.73;7.53;;;12.10;99.90;;;;;;4953668;29;20043;-56
2022/04/15 11:24:56;;;;;;;13.07;8.13;;;12.20;99.90;;;;;;4953847;28;20039;-59
2022/04/15 11:27:23;;;;;;;16.35;8.52;;;12.20;99.90;;;;;;4958094;28;20124;-59
2022/04/15 11:29:50;;;;;;;16.13;8.10;;;12.30;99.90;;;;;;4965054;28;20077;-60
2022/04/15 11:32:15;;;;;;;12.23;7.63;;;12.20;99.90;;;;;;4961874;28;20050;-59
2022/04/15 11:34:42;;;;;;;13.25;7.85;;;12.30;99.90;;;;;;4970710;28;20042;-59
2022/04/15 11:37:09;;;;;;;12.55;8.10;;;12.30;99.90;;;;;;4964481;28;20125;-59
2022/04/15 11:39:35;;;;;;;13.00;8.57;;;12.40;99.90;;;;;;4974683;28;20378;-59
2022/04/15 11:42:05;;;;;;;11.95;8.30;;;12.50;99.90;;;;;;4965628;28;20049;-60
2022/04/15 11:44:32;;;;;;;13.98;8.07;;;12.60;99.90;;;;;;4967083;28;20043;-59
2022/04/15 11:47:16;;;;;;;14.77;8.13;;;12.70;99.90;;;;;;4968591;28;20393;-60
2022/04/15 11:49:46;;;;;;;14.23;8.10;;;12.60;99.90;;;;;;4968209;28;20042;-59
2022/04/15 11:52:23;;;;;;;15.15;7.75;;;12.60;99.90;;;;;;4964932;28;20049;-58
2022/04/15 11:54:49;;;;;;;13.57;8.20;;;12.40;99.90;;;;;;4967721;28;20043;-58
2022/04/15 11:57:14;;;;;;;13.40;8.90;;;12.30;99.90;;;;;;4968896;28;20043;-58
2022/04/15 11:59:42;;;;;;;11.70;8.10;;;12.20;99.90;;;;;;4972076;28;20146;-58
2022/04/15 12:02:10;;;;;;;13.38;8.60;;;12.30;99.90;;;;;;4973091;28;20049;-59
2022/04/15 12:04:35;;;;;;;13.57;8.15;;;12.40;99.90;;;;;;4968956;28;20043;-60
2022/04/15 12:07:01;;;;;;;11.90;8.25;;;12.40;99.90;;;;;;4969623;28;20062;-59
2022/04/15 12:09:27;;;;;;;14.52;8.18;;;12.40;99.90;;;;;;4946949;28;20053;-61
2022/04/15 12:11:53;;;;;;;11.10;8.38;;;12.40;99.90;;;;;;4970766;28;20540;-61
2022/04/15 12:14:19;;;;;;;12.98;7.78;;;12.50;99.90;;;;;;4971282;28;20548;-61
2022/04/15 12:16:47;;;;;;;11.80;7.10;;;12.60;99.90;;;;;;4963005;28;20150;-61
2022/04/15 12:19:13;;;;;;;10.60;8.18;;;12.40;99.90;;;;;;4971652;28;20539;-61
2022/04/15 12:21:40;;;;;;;11.05;7.97;;;12.50;99.90;;;;;;4966868;28;20453;-61
2022/04/15 12:24:10;;;;;;;11.27;7.97;;;12.50;99.90;;;;;;4970310;28;20067;-60
2022/04/15 12:26:50;;;;;;;11.85;7.68;;;12.60;99.90;;;;;;4969994;28;20064;-60
2022/04/15 12:32:21;;;;;;;13.25;9.07;;;12.60;99.90;;;;;;4966091;28;20043;-60
2022/04/15 12:35:00;;;;;;;13.40;8.73;;;12.70;99.90;;;;;;4970776;28;20043;-60
2022/04/15 12:37:43;;;;;;;12.40;8.20;;;12.70;99.90;;;;;;4960345;28;20042;-61
2022/04/15 12:40:09;;;;;;;11.95;8.45;;;12.70;99.90;;;;;;4972241;28;20536;-61
2022/04/15 12:42:37;;;;;;;11.98;9.10;;;12.60;99.90;;;;;;4972216;28;20043;-60
2022/04/15 12:45:07;;;;;;;12.43;9.60;;;12.50;99.90;;;;;;4968937;28;20039;-61
2022/04/15 12:47:33;;;;;;;17.08;9.88;;;12.70;99.90;;;;;;4969702;28;20050;-60